sensor_id;sensor_type;location;lat;lon;timestamp;pressure;altitude;pressure_sealevel;temperature;humidity
81999;BME280;71598;46.516;-122.928;2023-12-22T00:00:36;100076.00;;;21.43;20.29
81999;BME280;71598;46.516;-122.928;2023-12-22T00:03:01;100074.85;;;21.12;20.22
81999;BME280;71598;46.516;-122.928;2023-12-22T00:05:26;100074.55;;;21.31;20.16
81999;BME280;71598;46.516;-122.928;2023-12-22T00:07:52;100071.66;;;21.33;20.12
81999;BME280;71598;46.516;-122.928;2023-12-22T00:10:18;100066.74;;;21.18;20.14
81999;BME280;71598;46.516;-122.928;2023-12-22T00:12:43;100062.28;;;21.11;20.10
81999;BME280;71598;46.516;-122.928;2023-12-22T00:15:08;100063.63;;;21.13;20.31
81999;BME280;71598;46.516;-122.928;2023-12-22T00:17:34;100065.15;;;21.19;20.30
81999;BME280;71598;46.516;-122.928;2023-12-22T00:19:59;100065.80;;;21.00;20.51
81999;BME280;71598;46.516;-122.928;2023-12-22T00:22:24;100069.24;;;20.99;20.62
81999;BME280;71598;46.516;-122.928;2023-12-22T00:24:50;100068.95;;;20.89;20.46
81999;BME280;71598;46.516;-122.928;2023-12-22T00:27:15;100068.99;;;21.16;20.30
81999;BME280;71598;46.516;-122.928;2023-12-22T00:29:41;100068.42;;;21.44;20.10
81999;BME280;71598;46.516;-122.928;2023-12-22T00:32:07;100071.25;;;21.61;19.96
81999;BME280;71598;46.516;-122.928;2023-12-22T00:34:32;100072.69;;;21.76;19.90
81999;BME280;71598;46.516;-122.928;2023-12-22T00:36:57;100069.11;;;21.97;19.75
81999;BME280;71598;46.516;-122.928;2023-12-22T00:39:22;100068.37;;;22.04;19.59
81999;BME280;71598;46.516;-122.928;2023-12-22T00:41:47;100066.89;;;22.19;19.66
81999;BME280;71598;46.516;-122.928;2023-12-22T00:44:13;100063.01;;;21.89;19.58
81999;BME280;71598;46.516;-122.928;2023-12-22T00:46:38;100061.24;;;22.26;19.48
81999;BME280;71598;46.516;-122.928;2023-12-22T00:49:04;100057.07;;;22.08;19.49
81999;BME280;71598;46.516;-122.928;2023-12-22T00:51:30;100055.11;;;22.05;19.42
81999;BME280;71598;46.516;-122.928;2023-12-22T00:53:55;100051.75;;;22.49;19.27
81999;BME280;71598;46.516;-122.928;2023-12-22T00:56:21;100052.45;;;22.44;19.22
81999;BME280;71598;46.516;-122.928;2023-12-22T00:58:46;100051.99;;;22.55;19.10
81999;BME280;71598;46.516;-122.928;2023-12-22T01:01:12;100052.16;;;22.65;18.95
81999;BME280;71598;46.516;-122.928;2023-12-22T01:03:37;100049.40;;;22.75;18.95
81999;BME280;71598;46.516;-122.928;2023-12-22T01:06:03;100047.16;;;22.79;18.85
81999;BME280;71598;46.516;-122.928;2023-12-22T01:08:28;100044.10;;;23.05;18.77
81999;BME280;71598;46.516;-122.928;2023-12-22T01:10:54;100046.10;;;22.47;18.84
81999;BME280;71598;46.516;-122.928;2023-12-22T01:13:19;100048.67;;;22.04;19.16
81999;BME280;71598;46.516;-122.928;2023-12-22T01:15:44;100048.95;;;22.57;18.89
81999;BME280;71598;46.516;-122.928;2023-12-22T01:18:10;100051.60;;;22.70;18.91
81999;BME280;71598;46.516;-122.928;2023-12-22T01:20:35;100051.45;;;22.14;19.31
81999;BME280;71598;46.516;-122.928;2023-12-22T01:23:01;100056.09;;;22.32;18.94
81999;BME280;71598;46.516;-122.928;2023-12-22T01:25:25;100053.70;;;22.52;18.86
81999;BME280;71598;46.516;-122.928;2023-12-22T01:27:50;100051.54;;;22.67;18.92
81999;BME280;71598;46.516;-122.928;2023-12-22T01:30:16;100051.86;;;22.87;18.84
81999;BME280;71598;46.516;-122.928;2023-12-22T01:32:42;100050.14;;;22.55;18.86
81999;BME280;71598;46.516;-122.928;2023-12-22T01:35:08;100049.69;;;22.81;18.82
81999;BME280;71598;46.516;-122.928;2023-12-22T01:37:33;100046.20;;;23.14;18.86
81999;BME280;71598;46.516;-122.928;2023-12-22T01:39:59;100046.29;;;22.19;19.08
81999;BME280;71598;46.516;-122.928;2023-12-22T01:42:24;100046.58;;;22.39;19.04
81999;BME280;71598;46.516;-122.928;2023-12-22T01:44:49;100049.17;;;22.27;19.17
81999;BME280;71598;46.516;-122.928;2023-12-22T01:47:15;100049.76;;;22.55;18.78
81999;BME280;71598;46.516;-122.928;2023-12-22T01:49:41;100046.18;;;22.73;18.68
81999;BME280;71598;46.516;-122.928;2023-12-22T01:52:06;100046.89;;;22.16;19.08
81999;BME280;71598;46.516;-122.928;2023-12-22T01:54:31;100048.40;;;22.36;19.09
81999;BME280;71598;46.516;-122.928;2023-12-22T01:56:56;100046.78;;;22.03;19.01
81999;BME280;71598;46.516;-122.928;2023-12-22T01:59:23;100044.77;;;22.22;19.03
81999;BME280;71598;46.516;-122.928;2023-12-22T02:01:47;100039.83;;;22.34;18.99
81999;BME280;71598;46.516;-122.928;2023-12-22T02:04:15;100036.79;;;22.12;19.19
81999;BME280;71598;46.516;-122.928;2023-12-22T02:06:40;100032.43;;;22.09;19.31
81999;BME280;71598;46.516;-122.928;2023-12-22T02:09:04;100028.90;;;22.00;19.26
81999;BME280;71598;46.516;-122.928;2023-12-22T02:11:30;100027.39;;;22.06;19.53
81999;BME280;71598;46.516;-122.928;2023-12-22T02:13:54;100023.82;;;22.64;18.95
81999;BME280;71598;46.516;-122.928;2023-12-22T02:16:28;100024.36;;;21.91;19.35
81999;BME280;71598;46.516;-122.928;2023-12-22T02:18:48;100025.09;;;21.82;19.42
81999;BME280;71598;46.516;-122.928;2023-12-22T02:21:11;100024.23;;;21.96;19.53
81999;BME280;71598;46.516;-122.928;2023-12-22T02:23:37;100028.28;;;21.99;19.57
81999;BME280;71598;46.516;-122.928;2023-12-22T02:26:10;100024.88;;;22.22;19.52
81999;BME280;71598;46.516;-122.928;2023-12-22T02:28:27;100023.64;;;22.17;19.50
81999;BME280;71598;46.516;-122.928;2023-12-22T02:30:56;100024.14;;;22.19;19.41
81999;BME280;71598;46.516;-122.928;2023-12-22T02:33:22;100030.18;;;22.27;19.34
81999;BME280;71598;46.516;-122.928;2023-12-22T02:35:45;100035.19;;;22.35;19.33
81999;BME280;71598;46.516;-122.928;2023-12-22T02:38:13;100038.47;;;21.96;19.49
81999;BME280;71598;46.516;-122.928;2023-12-22T02:40:37;100036.65;;;22.44;19.32
81999;BME280;71598;46.516;-122.928;2023-12-22T02:43:01;100038.44;;;22.50;19.45
81999;BME280;71598;46.516;-122.928;2023-12-22T02:45:26;100038.71;;;22.39;19.48
81999;BME280;71598;46.516;-122.928;2023-12-22T02:47:52;100039.65;;;22.29;19.46
81999;BME280;71598;46.516;-122.928;2023-12-22T02:50:17;100039.20;;;22.08;19.56
81999;BME280;71598;46.516;-122.928;2023-12-22T02:52:44;100040.55;;;22.41;19.34
81999;BME280;71598;46.516;-122.928;2023-12-22T02:55:08;100042.48;;;22.42;19.30
81999;BME280;71598;46.516;-122.928;2023-12-22T02:57:32;100041.39;;;22.63;19.32
81999;BME280;71598;46.516;-122.928;2023-12-22T02:59:58;100043.14;;;22.43;19.49
81999;BME280;71598;46.516;-122.928;2023-12-22T03:02:23;100046.74;;;21.76;19.79
81999;BME280;71598;46.516;-122.928;2023-12-22T03:04:48;100044.34;;;22.40;19.48
81999;BME280;71598;46.516;-122.928;2023-12-22T03:07:14;100043.31;;;22.64;19.38
81999;BME280;71598;46.516;-122.928;2023-12-22T03:09:39;100044.78;;;22.16;19.61
81999;BME280;71598;46.516;-122.928;2023-12-22T03:12:04;100041.64;;;22.43;19.60
81999;BME280;71598;46.516;-122.928;2023-12-22T03:14:31;100041.81;;;22.19;19.74
81999;BME280;71598;46.516;-122.928;2023-12-22T03:16:55;100041.53;;;22.05;19.76
81999;BME280;71598;46.516;-122.928;2023-12-22T03:19:20;100046.14;;;21.59;20.06
81999;BME280;71598;46.516;-122.928;2023-12-22T03:21:46;100048.88;;;21.61;20.43
81999;BME280;71598;46.516;-122.928;2023-12-22T03:24:10;100049.28;;;21.11;20.91
81999;BME280;71598;46.516;-122.928;2023-12-22T03:26:35;100055.17;;;20.62;21.09
81999;BME280;71598;46.516;-122.928;2023-12-22T03:29:01;100060.87;;;20.53;21.62
81999;BME280;71598;46.516;-122.928;2023-12-22T03:31:27;100064.84;;;20.44;21.73
81999;BME280;71598;46.516;-122.928;2023-12-22T03:33:58;100066.10;;;21.10;21.43
81999;BME280;71598;46.516;-122.928;2023-12-22T03:36:18;100064.52;;;20.63;21.45
81999;BME280;71598;46.516;-122.928;2023-12-22T03:38:44;100064.28;;;21.36;21.02
81999;BME280;71598;46.516;-122.928;2023-12-22T03:41:09;100063.21;;;21.02;21.11
81999;BME280;71598;46.516;-122.928;2023-12-22T03:43:33;100062.72;;;21.23;21.07
81999;BME280;71598;46.516;-122.928;2023-12-22T03:46:00;100056.21;;;20.98;21.02
81999;BME280;71598;46.516;-122.928;2023-12-22T03:48:26;100053.99;;;20.76;20.95
81999;BME280;71598;46.516;-122.928;2023-12-22T03:50:51;100055.56;;;21.45;20.57
81999;BME280;71598;46.516;-122.928;2023-12-22T03:53:16;100047.07;;;21.39;20.91
81999;BME280;71598;46.516;-122.928;2023-12-22T03:55:46;100043.61;;;21.22;20.82
81999;BME280;71598;46.516;-122.928;2023-12-22T03:58:06;100041.76;;;21.11;20.87
81999;BME280;71598;46.516;-122.928;2023-12-22T04:00:33;100043.80;;;21.29;20.75
81999;BME280;71598;46.516;-122.928;2023-12-22T04:02:58;100045.10;;;21.50;20.77
81999;BME280;71598;46.516;-122.928;2023-12-22T04:05:23;100045.16;;;21.27;20.87
81999;BME280;71598;46.516;-122.928;2023-12-22T04:07:49;100047.65;;;21.25;20.79
81999;BME280;71598;46.516;-122.928;2023-12-22T04:10:16;100050.97;;;18.00;24.11
81999;BME280;71598;46.516;-122.928;2023-12-22T04:12:40;100053.54;;;16.89;25.80
81999;BME280;71598;46.516;-122.928;2023-12-22T04:15:06;100057.32;;;16.91;26.74
81999;BME280;71598;46.516;-122.928;2023-12-22T04:17:30;100055.99;;;16.25;27.32
81999;BME280;71598;46.516;-122.928;2023-12-22T04:19:56;100057.81;;;16.60;27.49
81999;BME280;71598;46.516;-122.928;2023-12-22T04:22:21;100058.99;;;16.29;27.75
81999;BME280;71598;46.516;-122.928;2023-12-22T04:24:46;100060.19;;;16.31;27.86
81999;BME280;71598;46.516;-122.928;2023-12-22T04:27:12;100059.18;;;16.15;27.86
81999;BME280;71598;46.516;-122.928;2023-12-22T04:29:37;100055.61;;;16.18;27.93
81999;BME280;71598;46.516;-122.928;2023-12-22T04:32:03;100055.62;;;16.45;27.80
81999;BME280;71598;46.516;-122.928;2023-12-22T04:34:29;100056.15;;;16.15;27.85
81999;BME280;71598;46.516;-122.928;2023-12-22T04:36:54;100056.88;;;16.19;27.86
81999;BME280;71598;46.516;-122.928;2023-12-22T04:39:20;100054.05;;;16.30;28.01
81999;BME280;71598;46.516;-122.928;2023-12-22T04:41:45;100056.54;;;16.11;28.05
81999;BME280;71598;46.516;-122.928;2023-12-22T04:44:11;100054.12;;;15.83;28.23
81999;BME280;71598;46.516;-122.928;2023-12-22T04:46:36;100060.11;;;15.61;28.12
81999;BME280;71598;46.516;-122.928;2023-12-22T04:49:01;100061.30;;;16.05;28.03
81999;BME280;71598;46.516;-122.928;2023-12-22T04:51:27;100061.42;;;16.04;28.02
81999;BME280;71598;46.516;-122.928;2023-12-22T04:53:59;100058.00;;;15.96;28.10
81999;BME280;71598;46.516;-122.928;2023-12-22T04:56:18;100057.66;;;15.99;28.09
81999;BME280;71598;46.516;-122.928;2023-12-22T04:58:44;100056.59;;;16.06;28.04
81999;BME280;71598;46.516;-122.928;2023-12-22T05:01:09;100054.57;;;15.98;28.11
81999;BME280;71598;46.516;-122.928;2023-12-22T05:03:34;100054.41;;;15.80;28.15
81999;BME280;71598;46.516;-122.928;2023-12-22T05:06:00;100049.30;;;15.95;28.11
81999;BME280;71598;46.516;-122.928;2023-12-22T05:08:25;100049.97;;;15.81;28.11
81999;BME280;71598;46.516;-122.928;2023-12-22T05:10:51;100048.25;;;15.81;28.13
81999;BME280;71598;46.516;-122.928;2023-12-22T05:13:15;100046.33;;;15.78;28.38
81999;BME280;71598;46.516;-122.928;2023-12-22T05:15:40;100049.60;;;16.14;28.01
81999;BME280;71598;46.516;-122.928;2023-12-22T05:18:06;100046.72;;;15.89;28.03
81999;BME280;71598;46.516;-122.928;2023-12-22T05:20:31;100045.77;;;15.97;27.98
81999;BME280;71598;46.516;-122.928;2023-12-22T05:22:56;100048.48;;;15.76;28.00
81999;BME280;71598;46.516;-122.928;2023-12-22T05:25:22;100046.96;;;16.00;27.97
81999;BME280;71598;46.516;-122.928;2023-12-22T05:27:47;100045.19;;;15.79;27.89
81999;BME280;71598;46.516;-122.928;2023-12-22T05:30:15;100045.00;;;15.86;27.85
81999;BME280;71598;46.516;-122.928;2023-12-22T05:32:38;100045.94;;;15.96;27.90
81999;BME280;71598;46.516;-122.928;2023-12-22T05:35:04;100048.50;;;16.09;27.89
81999;BME280;71598;46.516;-122.928;2023-12-22T05:37:29;100048.62;;;15.73;28.03
81999;BME280;71598;46.516;-122.928;2023-12-22T05:39:56;100048.24;;;15.97;27.89
81999;BME280;71598;46.516;-122.928;2023-12-22T05:42:20;100048.31;;;15.84;27.93
81999;BME280;71598;46.516;-122.928;2023-12-22T05:44:45;100046.17;;;15.89;27.83
81999;BME280;71598;46.516;-122.928;2023-12-22T05:47:10;100043.32;;;15.89;27.72
81999;BME280;71598;46.516;-122.928;2023-12-22T05:49:36;100042.77;;;15.98;27.71
81999;BME280;71598;46.516;-122.928;2023-12-22T05:52:02;100042.71;;;15.82;27.74
81999;BME280;71598;46.516;-122.928;2023-12-22T05:54:27;100042.47;;;15.80;27.73
81999;BME280;71598;46.516;-122.928;2023-12-22T05:56:52;100040.38;;;15.92;27.75
81999;BME280;71598;46.516;-122.928;2023-12-22T05:59:17;100036.39;;;15.78;27.84
81999;BME280;71598;46.516;-122.928;2023-12-22T06:01:43;100033.04;;;16.08;27.85
81999;BME280;71598;46.516;-122.928;2023-12-22T06:04:09;100029.26;;;15.91;27.91
81999;BME280;71598;46.516;-122.928;2023-12-22T06:06:35;100029.52;;;15.73;27.71
81999;BME280;71598;46.516;-122.928;2023-12-22T06:08:59;100027.59;;;15.82;27.67
81999;BME280;71598;46.516;-122.928;2023-12-22T06:11:25;100024.19;;;15.98;27.73
81999;BME280;71598;46.516;-122.928;2023-12-22T06:13:51;100025.17;;;15.89;27.67
81999;BME280;71598;46.516;-122.928;2023-12-22T06:16:16;100022.68;;;15.75;27.80
81999;BME280;71598;46.516;-122.928;2023-12-22T06:18:43;100022.54;;;15.85;27.79
81999;BME280;71598;46.516;-122.928;2023-12-22T06:21:08;100021.32;;;15.70;27.94
81999;BME280;71598;46.516;-122.928;2023-12-22T06:23:33;100022.58;;;15.49;27.95
81999;BME280;71598;46.516;-122.928;2023-12-22T06:25:59;100021.91;;;15.38;27.96
81999;BME280;71598;46.516;-122.928;2023-12-22T06:28:23;100019.78;;;15.60;27.95
81999;BME280;71598;46.516;-122.928;2023-12-22T06:30:54;100022.36;;;15.63;28.00
81999;BME280;71598;46.516;-122.928;2023-12-22T06:33:14;100022.12;;;15.62;27.95
81999;BME280;71598;46.516;-122.928;2023-12-22T06:35:40;100022.70;;;15.73;28.06
81999;BME280;71598;46.516;-122.928;2023-12-22T06:38:05;100025.24;;;15.58;28.06
81999;BME280;71598;46.516;-122.928;2023-12-22T06:40:30;100028.33;;;15.57;28.10
81999;BME280;71598;46.516;-122.928;2023-12-22T06:42:56;100035.34;;;15.51;28.10
81999;BME280;71598;46.516;-122.928;2023-12-22T06:45:21;100035.40;;;15.63;27.51
81999;BME280;71598;46.516;-122.928;2023-12-22T06:47:47;100033.23;;;15.65;27.42
81999;BME280;71598;46.516;-122.928;2023-12-22T06:50:12;100040.88;;;15.87;27.70
81999;BME280;71598;46.516;-122.928;2023-12-22T06:52:37;100043.45;;;15.12;27.84
81999;BME280;71598;46.516;-122.928;2023-12-22T06:55:03;100040.80;;;15.22;27.90
81999;BME280;71598;46.516;-122.928;2023-12-22T06:57:28;100033.70;;;15.46;27.75
81999;BME280;71598;46.516;-122.928;2023-12-22T06:59:53;100032.26;;;15.36;27.89
81999;BME280;71598;46.516;-122.928;2023-12-22T07:02:18;100027.05;;;15.68;27.88
81999;BME280;71598;46.516;-122.928;2023-12-22T07:05:49;100022.96;;;15.47;27.95
81999;BME280;71598;46.516;-122.928;2023-12-22T07:07:10;100018.87;;;15.09;28.02
81999;BME280;71598;46.516;-122.928;2023-12-22T07:09:35;100020.13;;;15.36;27.92
81999;BME280;71598;46.516;-122.928;2023-12-22T07:12:01;100022.14;;;15.28;27.89
81999;BME280;71598;46.516;-122.928;2023-12-22T07:14:27;100023.63;;;15.34;27.93
81999;BME280;71598;46.516;-122.928;2023-12-22T07:16:53;100022.80;;;15.35;27.96
81999;BME280;71598;46.516;-122.928;2023-12-22T07:19:18;100025.47;;;15.39;27.99
81999;BME280;71598;46.516;-122.928;2023-12-22T07:21:43;100022.62;;;15.34;27.97
81999;BME280;71598;46.516;-122.928;2023-12-22T07:24:08;100021.71;;;15.26;27.93
81999;BME280;71598;46.516;-122.928;2023-12-22T07:26:33;100015.45;;;15.43;28.05
81999;BME280;71598;46.516;-122.928;2023-12-22T07:28:59;100011.95;;;15.43;27.99
81999;BME280;71598;46.516;-122.928;2023-12-22T07:31:25;100012.06;;;14.91;28.12
81999;BME280;71598;46.516;-122.928;2023-12-22T07:33:50;100012.15;;;15.32;28.07
81999;BME280;71598;46.516;-122.928;2023-12-22T07:36:15;100012.01;;;15.33;28.11
81999;BME280;71598;46.516;-122.928;2023-12-22T07:38:40;100008.15;;;15.08;28.07
81999;BME280;71598;46.516;-122.928;2023-12-22T07:41:05;100003.65;;;15.15;28.08
81999;BME280;71598;46.516;-122.928;2023-12-22T07:43:32;99998.87;;;15.19;28.07
81999;BME280;71598;46.516;-122.928;2023-12-22T07:45:56;99999.90;;;15.07;28.05
81999;BME280;71598;46.516;-122.928;2023-12-22T07:48:22;100005.00;;;15.18;28.05
81999;BME280;71598;46.516;-122.928;2023-12-22T07:50:47;100009.00;;;15.36;28.08
81999;BME280;71598;46.516;-122.928;2023-12-22T07:53:13;100009.55;;;15.13;27.99
81999;BME280;71598;46.516;-122.928;2023-12-22T07:55:37;100008.83;;;15.19;28.04
81999;BME280;71598;46.516;-122.928;2023-12-22T07:58:03;100011.35;;;15.14;27.94
81999;BME280;71598;46.516;-122.928;2023-12-22T08:00:28;100015.64;;;15.11;28.01
81999;BME280;71598;46.516;-122.928;2023-12-22T08:02:53;100014.10;;;15.03;27.93
81999;BME280;71598;46.516;-122.928;2023-12-22T08:05:19;100013.32;;;15.22;28.07
81999;BME280;71598;46.516;-122.928;2023-12-22T08:07:45;100017.48;;;14.87;28.04
81999;BME280;71598;46.516;-122.928;2023-12-22T08:10:10;100016.50;;;15.09;27.96
81999;BME280;71598;46.516;-122.928;2023-12-22T08:12:36;100018.15;;;15.12;28.02
81999;BME280;71598;46.516;-122.928;2023-12-22T08:15:02;100012.96;;;15.31;27.89
81999;BME280;71598;46.516;-122.928;2023-12-22T08:17:28;100012.67;;;15.05;28.10
81999;BME280;71598;46.516;-122.928;2023-12-22T08:19:52;100005.44;;;15.17;27.94
81999;BME280;71598;46.516;-122.928;2023-12-22T08:22:17;100003.46;;;14.57;27.99
81999;BME280;71598;46.516;-122.928;2023-12-22T08:24:43;100004.30;;;14.90;27.99
81999;BME280;71598;46.516;-122.928;2023-12-22T08:27:08;100002.55;;;15.08;27.98
81999;BME280;71598;46.516;-122.928;2023-12-22T08:29:33;100000.18;;;14.83;28.08
81999;BME280;71598;46.516;-122.928;2023-12-22T08:31:59;99991.73;;;15.06;27.92
81999;BME280;71598;46.516;-122.928;2023-12-22T08:34:24;99987.61;;;14.96;27.96
81999;BME280;71598;46.516;-122.928;2023-12-22T08:36:49;99990.63;;;15.02;27.92
81999;BME280;71598;46.516;-122.928;2023-12-22T08:39:15;99993.57;;;14.76;27.96
81999;BME280;71598;46.516;-122.928;2023-12-22T08:41:40;99997.93;;;14.81;27.98
81999;BME280;71598;46.516;-122.928;2023-12-22T08:44:06;99996.09;;;14.69;27.96
81999;BME280;71598;46.516;-122.928;2023-12-22T08:46:31;99994.05;;;14.89;27.96
81999;BME280;71598;46.516;-122.928;2023-12-22T08:48:56;99999.44;;;15.02;27.94
81999;BME280;71598;46.516;-122.928;2023-12-22T08:51:22;100008.34;;;14.85;28.06
81999;BME280;71598;46.516;-122.928;2023-12-22T08:53:47;100008.24;;;14.73;27.98
81999;BME280;71598;46.516;-122.928;2023-12-22T08:56:13;100006.74;;;14.79;27.94
81999;BME280;71598;46.516;-122.928;2023-12-22T08:58:40;100007.22;;;14.76;27.92
81999;BME280;71598;46.516;-122.928;2023-12-22T09:01:04;100001.11;;;14.67;28.00
81999;BME280;71598;46.516;-122.928;2023-12-22T09:03:32;99993.05;;;14.65;27.94
81999;BME280;71598;46.516;-122.928;2023-12-22T09:05:55;99990.97;;;14.70;27.94
81999;BME280;71598;46.516;-122.928;2023-12-22T09:08:20;99985.96;;;14.70;27.90
81999;BME280;71598;46.516;-122.928;2023-12-22T09:10:45;99987.16;;;14.76;27.92
81999;BME280;71598;46.516;-122.928;2023-12-22T09:13:11;99992.68;;;14.51;28.01
81999;BME280;71598;46.516;-122.928;2023-12-22T09:15:37;99990.41;;;14.53;27.99
81999;BME280;71598;46.516;-122.928;2023-12-22T09:18:03;99986.27;;;14.70;27.93
81999;BME280;71598;46.516;-122.928;2023-12-22T09:20:28;99986.10;;;14.51;27.91
81999;BME280;71598;46.516;-122.928;2023-12-22T09:22:53;99987.99;;;14.45;27.99
81999;BME280;71598;46.516;-122.928;2023-12-22T09:25:19;99988.61;;;14.33;27.97
81999;BME280;71598;46.516;-122.928;2023-12-22T09:27:44;99987.63;;;14.40;28.07
81999;BME280;71598;46.516;-122.928;2023-12-22T09:30:10;99984.85;;;14.31;28.04
81999;BME280;71598;46.516;-122.928;2023-12-22T09:32:35;99985.95;;;14.21;28.09
81999;BME280;71598;46.516;-122.928;2023-12-22T09:35:01;99983.32;;;14.30;28.11
81999;BME280;71598;46.516;-122.928;2023-12-22T09:37:26;99982.19;;;14.27;28.10
81999;BME280;71598;46.516;-122.928;2023-12-22T09:39:51;99979.63;;;14.46;28.10
81999;BME280;71598;46.516;-122.928;2023-12-22T09:42:18;99979.99;;;14.36;28.09
81999;BME280;71598;46.516;-122.928;2023-12-22T09:44:44;99975.23;;;14.22;28.08
81999;BME280;71598;46.516;-122.928;2023-12-22T09:47:10;99974.01;;;14.09;28.09
81999;BME280;71598;46.516;-122.928;2023-12-22T09:49:34;99971.42;;;14.12;28.09
81999;BME280;71598;46.516;-122.928;2023-12-22T09:52:02;99972.88;;;14.71;28.09
81999;BME280;71598;46.516;-122.928;2023-12-22T09:54:25;99972.46;;;14.36;28.19
81999;BME280;71598;46.516;-122.928;2023-12-22T09:56:51;99974.07;;;14.07;28.12
81999;BME280;71598;46.516;-122.928;2023-12-22T09:59:16;99975.20;;;14.41;28.05
81999;BME280;71598;46.516;-122.928;2023-12-22T10:01:44;99973.81;;;14.18;28.08
81999;BME280;71598;46.516;-122.928;2023-12-22T10:04:07;99974.44;;;14.20;28.08
81999;BME280;71598;46.516;-122.928;2023-12-22T10:06:32;99977.09;;;14.38;28.06
81999;BME280;71598;46.516;-122.928;2023-12-22T10:08:57;99978.49;;;13.94;28.05
81999;BME280;71598;46.516;-122.928;2023-12-22T10:11:23;99978.63;;;14.06;28.08
81999;BME280;71598;46.516;-122.928;2023-12-22T10:13:51;99975.11;;;14.23;28.10
81999;BME280;71598;46.516;-122.928;2023-12-22T10:16:15;99971.48;;;14.00;28.04
81999;BME280;71598;46.516;-122.928;2023-12-22T10:18:39;99970.85;;;14.52;28.10
81999;BME280;71598;46.516;-122.928;2023-12-22T10:21:04;99967.95;;;14.35;28.11
81999;BME280;71598;46.516;-122.928;2023-12-22T10:23:30;99973.05;;;14.31;28.06
81999;BME280;71598;46.516;-122.928;2023-12-22T10:25:58;99971.95;;;14.04;28.07
81999;BME280;71598;46.516;-122.928;2023-12-22T10:28:21;99971.30;;;14.26;28.05
81999;BME280;71598;46.516;-122.928;2023-12-22T10:30:46;99975.71;;;14.29;27.98
81999;BME280;71598;46.516;-122.928;2023-12-22T10:33:12;99981.03;;;14.23;28.02
81999;BME280;71598;46.516;-122.928;2023-12-22T10:35:37;99976.90;;;13.97;27.97
81999;BME280;71598;46.516;-122.928;2023-12-22T10:38:04;99974.60;;;14.02;27.98
81999;BME280;71598;46.516;-122.928;2023-12-22T10:40:28;99983.50;;;14.13;27.98
81999;BME280;71598;46.516;-122.928;2023-12-22T10:42:54;99983.28;;;13.83;28.01
81999;BME280;71598;46.516;-122.928;2023-12-22T10:45:21;99986.93;;;14.32;28.09
81999;BME280;71598;46.516;-122.928;2023-12-22T10:47:44;99984.86;;;13.93;28.11
81999;BME280;71598;46.516;-122.928;2023-12-22T10:50:12;99995.57;;;14.00;28.14
81999;BME280;71598;46.516;-122.928;2023-12-22T10:52:35;99992.83;;;13.89;28.21
81999;BME280;71598;46.516;-122.928;2023-12-22T10:55:01;99995.51;;;13.93;28.16
81999;BME280;71598;46.516;-122.928;2023-12-22T10:57:27;100001.29;;;13.83;28.08
81999;BME280;71598;46.516;-122.928;2023-12-22T10:59:53;100013.59;;;13.81;27.97
81999;BME280;71598;46.516;-122.928;2023-12-22T11:02:20;100007.19;;;13.81;28.27
81999;BME280;71598;46.516;-122.928;2023-12-22T11:04:47;99997.29;;;14.01;28.12
81999;BME280;71598;46.516;-122.928;2023-12-22T11:07:10;99990.17;;;13.83;28.05
81999;BME280;71598;46.516;-122.928;2023-12-22T11:09:36;99990.12;;;14.12;28.06
81999;BME280;71598;46.516;-122.928;2023-12-22T11:12:01;99985.95;;;13.80;28.08
81999;BME280;71598;46.516;-122.928;2023-12-22T11:14:27;99981.40;;;14.33;28.11
81999;BME280;71598;46.516;-122.928;2023-12-22T11:16:52;99987.49;;;14.10;28.01
81999;BME280;71598;46.516;-122.928;2023-12-22T11:19:16;99992.99;;;13.82;28.15
81999;BME280;71598;46.516;-122.928;2023-12-22T11:21:41;99986.79;;;13.94;28.09
81999;BME280;71598;46.516;-122.928;2023-12-22T11:24:07;99983.35;;;13.81;28.24
81999;BME280;71598;46.516;-122.928;2023-12-22T11:26:32;99982.60;;;13.79;28.12
81999;BME280;71598;46.516;-122.928;2023-12-22T11:28:57;99968.96;;;13.86;28.33
81999;BME280;71598;46.516;-122.928;2023-12-22T11:31:24;99961.05;;;13.77;28.19
81999;BME280;71598;46.516;-122.928;2023-12-22T11:33:50;99948.17;;;14.10;28.16
81999;BME280;71598;46.516;-122.928;2023-12-22T11:36:15;99946.68;;;13.83;28.12
81999;BME280;71598;46.516;-122.928;2023-12-22T11:38:40;99941.95;;;13.85;28.06
81999;BME280;71598;46.516;-122.928;2023-12-22T11:41:06;99932.00;;;13.90;28.09
81999;BME280;71598;46.516;-122.928;2023-12-22T11:43:31;99929.08;;;14.19;28.08
81999;BME280;71598;46.516;-122.928;2023-12-22T11:46:02;99927.43;;;13.93;28.11
81999;BME280;71598;46.516;-122.928;2023-12-22T11:48:22;99927.58;;;13.77;28.06
81999;BME280;71598;46.516;-122.928;2023-12-22T11:50:48;99930.90;;;13.92;27.98
81999;BME280;71598;46.516;-122.928;2023-12-22T11:53:20;99927.20;;;13.46;28.38
81999;BME280;71598;46.516;-122.928;2023-12-22T11:56:11;99927.97;;;13.26;28.40
81999;BME280;71598;46.516;-122.928;2023-12-22T11:58:34;99927.71;;;14.07;28.23
81999;BME280;71598;46.516;-122.928;2023-12-22T12:00:45;99926.53;;;14.06;28.12
81999;BME280;71598;46.516;-122.928;2023-12-22T12:02:55;99918.23;;;13.84;28.08
81999;BME280;71598;46.516;-122.928;2023-12-22T12:05:20;99918.06;;;13.79;28.10
81999;BME280;71598;46.516;-122.928;2023-12-22T12:07:47;99910.60;;;14.14;28.04
81999;BME280;71598;46.516;-122.928;2023-12-22T12:10:12;99908.48;;;14.03;28.03
81999;BME280;71598;46.516;-122.928;2023-12-22T12:12:37;99901.03;;;13.88;28.10